Time;durP1;ratioP1;P1;durP2;ratioP2;P2;SDS_P1;SDS_P2;PMS_P1;PMS_P2;Temp;Humidity;BMP_temperature;BMP_pressure;BME280_temperature;BME280_humidity;BME280_pressure;Samples;Min_cycle;Max_cycle;Signal;HPM_P1;HPM_P2
2023/02/17 00:03:28;;;;;;;;;;;17.70;49.10;;;;;;10080278;28;743;-76
2023/02/17 00:08:24;;;;;;;;;;;17.70;49.20;;;;;;10080162;28;742;-77
2023/02/17 00:13:19;;;;;;;;;;;17.70;49.20;;;;;;10079347;28;1906;-77
2023/02/17 00:18:14;;;;;;;;;;;17.70;49.20;;;;;;10080461;28;919;-77
2023/02/17 00:23:10;;;;;;;;;;;17.70;49.20;;;;;;10079655;28;945;-77
2023/02/17 00:28:05;;;;;;;;;;;17.70;49.20;;;;;;10079643;28;887;-77
2023/02/17 00:33:01;;;;;;;;;;;17.60;49.10;;;;;;10079441;28;1899;-77
2023/02/17 00:37:56;;;;;;;;;;;17.70;49.20;;;;;;10079978;28;877;-77
2023/02/17 00:42:53;;;;;;;;;;;17.60;49.20;;;;;;10079723;28;1204;-77
2023/02/17 00:47:49;;;;;;;;;;;17.60;49.30;;;;;;10079690;28;806;-77
2023/02/17 00:52:44;;;;;;;;;;;17.60;49.20;;;;;;10081471;28;1976;-77
2023/02/17 00:57:39;;;;;;;;;;;17.60;49.20;;;;;;10086423;28;895;-77
2023/02/17 01:02:35;;;;;;;;;;;17.60;49.20;;;;;;10086302;28;790;-77
2023/02/17 01:07:30;;;;;;;;;;;17.60;49.30;;;;;;10085153;28;1063;-77
2023/02/17 01:12:25;;;;;;;;;;;17.60;49.30;;;;;;10085945;28;1911;-77
2023/02/17 01:17:21;;;;;;;;;;;17.60;49.30;;;;;;10084695;28;835;-77
2023/02/17 01:22:16;;;;;;;;;;;17.60;49.30;;;;;;10085639;28;881;-77
2023/02/17 01:27:11;;;;;;;;;;;17.60;49.30;;;;;;10084350;28;1167;-77
2023/02/17 01:32:07;;;;;;;;;;;17.60;49.30;;;;;;10084713;29;1907;-77
2023/02/17 01:37:02;;;;;;;;;;;17.60;49.30;;;;;;10084138;28;971;-77
2023/02/17 01:41:57;;;;;;;;;;;17.60;49.20;;;;;;10084801;28;1372;-77
2023/02/17 01:46:53;;;;;;;;;;;17.60;49.30;;;;;;10084380;28;773;-77
2023/02/17 01:51:48;;;;;;;;;;;17.60;49.30;;;;;;10084200;28;1974;-77
2023/02/17 01:56:43;;;;;;;;;;;17.60;49.30;;;;;;10084124;28;943;-77
2023/02/17 02:01:39;;;;;;;;;;;17.60;49.40;;;;;;10083655;28;1027;-77
2023/02/17 02:06:34;;;;;;;;;;;17.60;49.30;;;;;;10083815;28;959;-77
2023/02/17 02:11:30;;;;;;;;;;;17.60;49.30;;;;;;10084149;29;1906;-77
2023/02/17 02:16:25;;;;;;;;;;;17.60;49.30;;;;;;10083504;28;893;-77
2023/02/17 02:21:20;;;;;;;;;;;17.60;49.30;;;;;;10084821;28;873;-77
2023/02/17 02:26:16;;;;;;;;;;;17.60;49.30;;;;;;10082633;28;940;-77
2023/02/17 02:31:11;;;;;;;;;;;17.60;49.40;;;;;;10084130;28;1906;-77
2023/02/17 02:36:06;;;;;;;;;;;17.60;49.40;;;;;;10082932;28;766;-77
2023/02/17 02:41:02;;;;;;;;;;;17.60;49.40;;;;;;10082220;28;1137;-77
2023/02/17 02:45:57;;;;;;;;;;;17.60;49.40;;;;;;10082034;28;1008;-77
2023/02/17 02:50:52;;;;;;;;;;;17.60;49.40;;;;;;10082324;28;1914;-77
2023/02/17 02:55:48;;;;;;;;;;;17.60;49.40;;;;;;10082519;28;814;-77
2023/02/17 03:00:43;;;;;;;;;;;17.60;49.50;;;;;;10081478;28;1010;-77
2023/02/17 03:05:39;;;;;;;;;;;17.60;49.50;;;;;;10081985;28;863;-77
2023/02/17 03:10:34;;;;;;;;;;;17.60;49.50;;;;;;10081949;28;1907;-77
2023/02/17 03:15:30;;;;;;;;;;;17.60;49.50;;;;;;10081049;28;821;-77
2023/02/17 03:20:25;;;;;;;;;;;17.60;49.50;;;;;;10082127;28;847;-77
2023/02/17 03:25:20;;;;;;;;;;;17.60;49.50;;;;;;10081437;28;936;-77
2023/02/17 03:30:16;;;;;;;;;;;17.60;49.50;;;;;;10080609;28;1895;-77
2023/02/17 03:35:11;;;;;;;;;;;17.60;49.40;;;;;;10081091;28;850;-77
2023/02/17 03:40:07;;;;;;;;;;;17.60;49.40;;;;;;10080991;28;803;-77
2023/02/17 03:45:02;;;;;;;;;;;17.60;49.40;;;;;;10081343;28;1187;-77
2023/02/17 03:49:57;;;;;;;;;;;17.60;49.50;;;;;;10080088;28;1910;-77
2023/02/17 03:54:53;;;;;;;;;;;17.60;49.50;;;;;;10080056;28;817;-77
2023/02/17 03:59:48;;;;;;;;;;;17.60;49.40;;;;;;10079837;28;1084;-77
2023/02/17 04:04:43;;;;;;;;;;;17.60;49.50;;;;;;10080909;28;865;-77
2023/02/17 04:09:39;;;;;;;;;;;17.60;49.40;;;;;;10081181;28;1956;-77
2023/02/17 04:14:34;;;;;;;;;;;17.60;49.50;;;;;;10080611;28;810;-77
2023/02/17 04:19:29;;;;;;;;;;;17.60;49.50;;;;;;10080567;28;893;-77
2023/02/17 04:24:25;;;;;;;;;;;17.60;49.60;;;;;;10079773;28;770;-77
2023/02/17 04:29:20;;;;;;;;;;;17.60;49.40;;;;;;10078416;28;1890;-77
2023/02/17 04:34:16;;;;;;;;;;;17.60;49.40;;;;;;10080301;28;838;-77
2023/02/17 04:39:11;;;;;;;;;;;17.60;49.40;;;;;;10080031;28;893;-77
2023/02/17 04:44:06;;;;;;;;;;;17.60;49.50;;;;;;10078652;28;1108;-77
2023/02/17 04:49:02;;;;;;;;;;;17.60;49.50;;;;;;10078513;28;1907;-77
2023/02/17 04:53:57;;;;;;;;;;;17.50;49.40;;;;;;10079050;28;874;-77
2023/02/17 04:58:52;;;;;;;;;;;17.50;49.40;;;;;;10078886;28;759;-77
2023/02/17 05:03:48;;;;;;;;;;;17.60;49.50;;;;;;10078822;28;794;-77
2023/02/17 05:08:43;;;;;;;;;;;17.60;49.50;;;;;;10079866;28;920;-77
2023/02/17 05:13:39;;;;;;;;;;;17.60;49.50;;;;;;10078505;28;1906;-77
2023/02/17 05:18:34;;;;;;;;;;;17.50;49.40;;;;;;10078452;28;963;-77
2023/02/17 05:23:29;;;;;;;;;;;17.50;49.40;;;;;;10078962;28;863;-77
2023/02/17 05:28:25;;;;;;;;;;;17.60;49.50;;;;;;10078999;28;838;-77
2023/02/17 05:33:20;;;;;;;;;;;17.60;49.40;;;;;;10078807;28;1907;-77
2023/02/17 05:38:15;;;;;;;;;;;17.60;49.40;;;;;;10079442;28;980;-77
2023/02/17 05:43:11;;;;;;;;;;;17.60;49.30;;;;;;10085440;28;1245;-77
2023/02/17 05:48:06;;;;;;;;;;;17.60;49.30;;;;;;10084427;28;861;-77
2023/02/17 05:53:02;;;;;;;;;;;17.60;49.30;;;;;;10084759;28;1984;-76
2023/02/17 05:57:57;;;;;;;;;;;17.60;49.30;;;;;;10084692;28;933;-77
2023/02/17 06:02:52;;;;;;;;;;;17.60;49.30;;;;;;10083893;28;821;-77
2023/02/17 06:07:48;;;;;;;;;;;17.60;49.30;;;;;;10084401;28;905;-77
2023/02/17 06:12:43;;;;;;;;;;;17.60;49.30;;;;;;10083054;28;1973;-77
2023/02/17 06:17:38;;;;;;;;;;;17.70;49.40;;;;;;10083517;28;774;-77
2023/02/17 06:22:34;;;;;;;;;;;17.70;49.30;;;;;;10083363;28;877;-77
2023/02/17 06:27:29;;;;;;;;;;;17.70;49.40;;;;;;10084061;28;1107;-76
2023/02/17 06:32:24;;;;;;;;;;;17.60;49.30;;;;;;10082394;28;1967;-76
2023/02/17 06:37:20;;;;;;;;;;;17.70;49.40;;;;;;10083038;28;814;-77
2023/02/17 06:42:15;;;;;;;;;;;17.80;49.40;;;;;;10082545;28;1425;-77
2023/02/17 06:47:10;;;;;;;;;;;17.90;49.40;;;;;;10082024;28;873;-75
2023/02/17 06:52:06;;;;;;;;;;;17.90;49.30;;;;;;10081974;28;1914;-77
2023/02/17 06:57:01;;;;;;;;;;;17.90;49.40;;;;;;10082245;28;878;-75
2023/02/17 07:01:57;;;;;;;;;;;18.00;49.50;;;;;;10082736;28;1170;-77
2023/02/17 07:06:52;;;;;;;;;;;18.00;49.60;;;;;;10082014;28;863;-78
2023/02/17 07:11:49;;;;;;;;;;;18.00;49.60;;;;;;10082397;28;1911;-77
2023/02/17 07:16:45;;;;;;;;;;;18.00;49.70;;;;;;10082453;28;764;-78
2023/02/17 07:21:40;;;;;;;;;;;18.00;50.00;;;;;;10081542;28;1059;-77
2023/02/17 07:26:36;;;;;;;;;;;17.90;50.00;;;;;;10081478;28;859;-77
2023/02/17 07:31:31;;;;;;;;;;;17.90;50.10;;;;;;10081126;28;1907;-76
2023/02/17 07:36:26;;;;;;;;;;;17.90;50.20;;;;;;10089470;28;1130;-77
2023/02/17 07:41:23;;;;;;;;;;;17.90;50.30;;;;;;10089075;28;1114;-77
2023/02/17 07:46:18;;;;;;;;;;;17.90;50.30;;;;;;10080364;28;966;-78
2023/02/17 07:51:14;;;;;;;;;;;18.00;50.20;;;;;;10080432;28;1914;-77
2023/02/17 07:56:09;;;;;;;;;;;18.00;50.80;;;;;;10081062;28;862;-78
2023/02/17 08:01:05;;;;;;;;;;;18.00;50.20;;;;;;10080487;28;857;-78
2023/02/17 08:06:00;;;;;;;;;;;18.00;50.30;;;;;;10080241;28;964;-78
2023/02/17 08:16:09;;;;;;;;;;;18.00;50.30;;;;;;10079296;29;601;-78
2023/02/17 08:21:05;;;;;;;;;;;18.00;50.30;;;;;;10080199;28;856;-78
2023/02/17 08:26:00;;;;;;;;;;;18.00;50.30;;;;;;10079726;28;748;-78
2023/02/17 08:30:55;;;;;;;;;;;18.00;50.40;;;;;;10079134;28;1969;-78
2023/02/17 08:35:51;;;;;;;;;;;18.00;50.50;;;;;;10079506;28;758;-78
2023/02/17 08:40:46;;;;;;;;;;;18.00;50.40;;;;;;10078183;28;1128;-78
2023/02/17 08:45:41;;;;;;;;;;;18.10;50.50;;;;;;10079814;28;766;-77
2023/02/17 08:50:37;;;;;;;;;;;18.10;50.50;;;;;;10077943;28;1976;-77
2023/02/17 08:55:32;;;;;;;;;;;18.10;50.60;;;;;;10079036;28;790;-78
2023/02/17 09:00:28;;;;;;;;;;;18.10;50.80;;;;;;10077980;28;850;-78
2023/02/17 09:05:23;;;;;;;;;;;18.10;50.80;;;;;;10078543;28;1086;-77
2023/02/17 09:10:18;;;;;;;;;;;18.10;50.80;;;;;;10078022;28;1973;-78
2023/02/17 09:15:14;;;;;;;;;;;18.10;50.90;;;;;;10103846;28;1071;-77
2023/02/17 09:20:09;;;;;;;;;;;18.10;50.80;;;;;;10124317;28;817;-78
2023/02/17 09:25:04;;;;;;;;;;;18.10;51.00;;;;;;10124666;28;809;-77
2023/02/17 09:30:00;;;;;;;;;;;18.10;51.00;;;;;;10124172;28;1910;-77
2023/02/17 09:34:55;;;;;;;;;;;18.00;51.00;;;;;;10124125;28;936;-77
2023/02/17 09:39:50;;;;;;;;;;;17.90;51.00;;;;;;10124915;28;862;-77
2023/02/17 09:44:46;;;;;;;;;;;17.80;51.20;;;;;;10123066;28;1299;-77
2023/02/17 09:49:41;;;;;;;;;;;17.90;51.10;;;;;;10123596;28;1918;-80
2023/02/17 09:54:37;;;;;;;;;;;17.80;51.10;;;;;;10123492;28;742;-80
2023/02/17 09:59:32;;;;;;;;;;;17.80;51.10;;;;;;10123951;28;877;-82
2023/02/17 10:04:27;;;;;;;;;;;17.80;51.00;;;;;;10123185;28;775;-79
2023/02/17 10:09:23;;;;;;;;;;;17.80;51.10;;;;;;10122346;28;1907;-76
2023/02/17 10:14:18;;;;;;;;;;;17.80;51.20;;;;;;10122899;28;762;-76
2023/02/17 10:19:14;;;;;;;;;;;17.80;51.20;;;;;;10123350;28;905;-79
2023/02/17 10:24:09;;;;;;;;;;;17.80;51.20;;;;;;10122482;28;787;-78
2023/02/17 10:29:04;;;;;;;;;;;17.70;51.00;;;;;;10123002;28;1956;-78
2023/02/17 10:34:00;;;;;;;;;;;17.80;51.00;;;;;;10121702;28;844;-78
2023/02/17 10:38:56;;;;;;;;;;;17.80;51.00;;;;;;10122199;28;778;-78
2023/02/17 10:43:51;;;;;;;;;;;17.80;51.00;;;;;;10122108;28;1115;-78
2023/02/17 10:48:46;;;;;;;;;;;17.80;50.90;;;;;;10122445;28;912;-78
2023/02/17 10:53:42;;;;;;;;;;;17.80;50.90;;;;;;10122216;28;1969;-78
2023/02/17 10:58:37;;;;;;;;;;;17.80;50.90;;;;;;10122283;28;932;-78
2023/02/17 11:03:33;;;;;;;;;;;17.80;50.90;;;;;;10121299;28;847;-78
2023/02/17 11:08:28;;;;;;;;;;;17.80;50.90;;;;;;10121285;28;960;-78
2023/02/17 11:13:23;;;;;;;;;;;17.80;50.90;;;;;;10121046;28;1899;-78
2023/02/17 11:18:19;;;;;;;;;;;17.80;50.90;;;;;;10121006;28;990;-78
2023/02/17 11:23:14;;;;;;;;;;;17.80;50.90;;;;;;10120847;28;844;-78
2023/02/17 11:28:09;;;;;;;;;;;17.80;50.90;;;;;;10120669;28;797;-78
2023/02/17 11:33:05;;;;;;;;;;;17.80;50.90;;;;;;10121171;28;1898;-78
2023/02/17 11:38:01;;;;;;;;;;;17.80;50.90;;;;;;10120089;28;774;-78
2023/02/17 11:42:56;;;;;;;;;;;17.80;50.80;;;;;;10120946;28;1173;-78
2023/02/17 11:47:51;;;;;;;;;;;17.80;50.90;;;;;;10119447;28;1159;-78
2023/02/17 11:52:47;;;;;;;;;;;17.80;50.90;;;;;;10119863;28;1910;-78
2023/02/17 11:57:42;;;;;;;;;;;17.80;50.80;;;;;;10120351;28;892;-78
2023/02/17 12:02:38;;;;;;;;;;;17.90;50.80;;;;;;10119542;28;913;-78
2023/02/17 12:07:33;;;;;;;;;;;17.90;50.80;;;;;;10120191;28;871;-78
2023/02/17 12:12:28;;;;;;;;;;;17.80;50.90;;;;;;10118606;28;1957;-78
2023/02/17 12:17:24;;;;;;;;;;;17.90;50.80;;;;;;10119332;28;869;-78
2023/02/17 12:22:19;;;;;;;;;;;17.90;50.80;;;;;;10118871;28;760;-77
2023/02/17 12:27:15;;;;;;;;;;;17.90;50.80;;;;;;10118948;28;1101;-77
2023/02/17 12:32:10;;;;;;;;;;;17.90;50.80;;;;;;10118188;28;1903;-79
2023/02/17 12:37:05;;;;;;;;;;;17.90;50.70;;;;;;10118687;28;840;-79
2023/02/17 12:42:01;;;;;;;;;;;17.90;50.70;;;;;;10118494;28;1180;-79
2023/02/17 12:46:56;;;;;;;;;;;17.90;50.80;;;;;;10118444;28;794;-79
2023/02/17 12:51:52;;;;;;;;;;;17.90;50.80;;;;;;10124657;28;1978;-79
2023/02/17 12:56:49;;;;;;;;;;;17.90;50.80;;;;;;10125283;28;774;-80
2023/02/17 13:01:44;;;;;;;;;;;17.80;50.70;;;;;;10125127;28;984;-79
2023/02/17 13:06:40;;;;;;;;;;;17.80;50.80;;;;;;10125038;28;784;-78
2023/02/17 13:11:35;;;;;;;;;;;17.80;50.80;;;;;;10125379;28;1965;-81
2023/02/17 13:16:30;;;;;;;;;;;17.80;50.90;;;;;;10125285;28;813;-79
2023/02/17 13:21:28;;;;;;;;;;;17.80;50.90;;;;;;10125217;28;865;-78
2023/02/17 13:26:24;;;;;;;;;;;17.80;50.90;;;;;;10123826;28;916;-78
2023/02/17 13:31:19;;;;;;;;;;;17.80;51.10;;;;;;10124751;28;1972;-79
2023/02/17 13:36:15;;;;;;;;;;;17.80;50.90;;;;;;10124125;28;783;-78
2023/02/17 13:41:10;;;;;;;;;;;17.80;50.80;;;;;;10123402;28;1109;-78
2023/02/17 13:46:06;;;;;;;;;;;17.80;50.90;;;;;;10120990;28;1261;-78
2023/02/17 13:51:02;;;;;;;;;;;17.80;50.90;;;;;;10122379;28;1907;-79
2023/02/17 13:55:57;;;;;;;;;;;17.80;50.90;;;;;;10121195;28;953;-78
2023/02/17 14:00:52;;;;;;;;;;;17.80;50.90;;;;;;10120534;28;989;-76
2023/02/17 14:05:48;;;;;;;;;;;17.80;50.90;;;;;;10120725;28;778;-77
2023/02/17 14:10:43;;;;;;;;;;;18.00;51.40;;;;;;10121084;28;1906;-76
2023/02/17 14:15:38;;;;;;;;;;;18.10;51.50;;;;;;10119831;28;1070;-76
2023/02/17 14:20:34;;;;;;;;;;;18.10;51.50;;;;;;10119816;28;830;-76
2023/02/17 14:25:29;;;;;;;;;;;18.10;51.50;;;;;;10120872;28;774;-76
2023/02/17 14:30:25;;;;;;;;;;;18.20;51.60;;;;;;10120070;28;1965;-76
2023/02/17 14:35:20;;;;;;;;;;;18.20;51.60;;;;;;10119974;28;855;-76
2023/02/17 14:40:16;;;;;;;;;;;18.20;51.50;;;;;;10119891;28;968;-76
2023/02/17 14:45:11;;;;;;;;;;;18.20;51.50;;;;;;10082644;28;1130605;-76
2023/02/17 14:50:07;;;;;;;;;;;18.20;51.60;;;;;;10121434;28;1919;-76
2023/02/17 14:55:02;;;;;;;;;;;18.20;51.60;;;;;;10122031;28;1188;-76
2023/02/17 14:59:58;;;;;;;;;;;18.20;51.50;;;;;;10121321;28;928;-76
2023/02/17 15:04:53;;;;;;;;;;;18.20;51.50;;;;;;10122295;28;861;-77
2023/02/17 15:09:48;;;;;;;;;;;18.20;51.50;;;;;;10121265;28;1911;-77
2023/02/17 15:14:45;;;;;;;;;;;18.20;51.60;;;;;;10120856;28;833;-76
2023/02/17 15:19:43;;;;;;;;;;;18.30;51.50;;;;;;10121039;28;938;-76
2023/02/17 15:24:38;;;;;;;;;;;18.30;51.50;;;;;;10120737;28;977;-77
2023/02/17 15:29:34;;;;;;;;;;;18.20;51.60;;;;;;10120607;28;1910;-76
2023/02/17 15:34:30;;;;;;;;;;;18.30;51.70;;;;;;10120515;28;833;-76
2023/02/17 15:39:25;;;;;;;;;;;18.30;51.90;;;;;;10120335;28;870;-76
2023/02/17 15:44:21;;;;;;;;;;;18.20;51.90;;;;;;10121253;28;1274;-76
2023/02/17 15:49:16;;;;;;;;;;;18.20;51.90;;;;;;10120012;28;1973;-76
2023/02/17 15:54:12;;;;;;;;;;;18.20;51.90;;;;;;10119321;28;873;-76
2023/02/17 15:59:07;;;;;;;;;;;18.20;52.00;;;;;;10120731;28;775;-76
2023/02/17 16:04:03;;;;;;;;;;;18.20;51.90;;;;;;10119560;28;929;-76
2023/02/17 16:08:58;;;;;;;;;;;18.20;51.80;;;;;;10119480;28;821;-77
2023/02/17 16:13:54;;;;;;;;;;;18.30;51.80;;;;;;10119293;28;1907;-76
2023/02/17 16:18:49;;;;;;;;;;;18.20;51.70;;;;;;10119832;28;910;-76
2023/02/17 16:23:45;;;;;;;;;;;18.30;51.70;;;;;;10119546;28;938;-76
2023/02/17 16:28:40;;;;;;;;;;;18.30;51.70;;;;;;10119204;28;776;-76
2023/02/17 16:33:35;;;;;;;;;;;18.30;51.60;;;;;;10118680;28;1910;-76
2023/02/17 16:38:33;;;;;;;;;;;18.30;51.60;;;;;;10119339;28;841;-76
2023/02/17 16:43:29;;;;;;;;;;;18.30;51.60;;;;;;10118971;28;1311;-76
2023/02/17 16:48:25;;;;;;;;;;;18.30;51.60;;;;;;10118626;28;874;-76
2023/02/17 16:53:20;;;;;;;;;;;18.20;51.50;;;;;;10118343;28;1977;-76
2023/02/17 16:58:15;;;;;;;;;;;18.30;51.60;;;;;;10118874;28;785;-76
2023/02/17 17:03:11;;;;;;;;;;;18.30;51.50;;;;;;10118171;28;809;-76
2023/02/17 17:08:06;;;;;;;;;;;18.30;51.50;;;;;;10118020;28;873;-76
2023/02/17 17:13:02;;;;;;;;;;;18.30;51.40;;;;;;10117229;28;1898;-76
2023/02/17 17:17:57;;;;;;;;;;;18.30;51.40;;;;;;10117757;28;866;-75
2023/02/17 17:22:52;;;;;;;;;;;18.30;51.50;;;;;;10118253;28;797;-76
2023/02/17 17:27:48;;;;;;;;;;;18.30;51.40;;;;;;10118132;28;759;-76
2023/02/17 17:32:43;;;;;;;;;;;18.40;51.50;;;;;;10117357;28;1965;-72
2023/02/17 17:37:39;;;;;;;;;;;18.40;51.40;;;;;;10123329;28;868;-83
2023/02/17 17:42:36;;;;;;;;;;;18.30;52.00;;;;;;10124070;28;1185;-83
2023/02/17 17:47:31;;;;;;;;;;;18.10;51.60;;;;;;10123830;28;849;-84
2023/02/17 17:52:27;;;;;;;;;;;18.10;51.60;;;;;;10123534;28;1910;-78
2023/02/17 17:57:22;;;;;;;;;;;18.10;51.60;;;;;;10122929;28;842;-79
2023/02/17 18:02:18;;;;;;;;;;;18.10;51.50;;;;;;10122767;28;826;-78
2023/02/17 18:07:13;;;;;;;;;;;18.10;51.50;;;;;;10123277;28;944;-78
2023/02/17 18:12:08;;;;;;;;;;;18.10;51.50;;;;;;10138086;28;1907;-79
2023/02/17 18:17:04;;;;;;;;;;;18.10;51.50;;;;;;10122948;28;832;-78
2023/02/17 18:21:59;;;;;;;;;;;18.10;51.50;;;;;;10123369;28;859;-79
2023/02/17 18:26:54;;;;;;;;;;;18.00;51.40;;;;;;10122607;28;862;-78
2023/02/17 18:31:50;;;;;;;;;;;18.10;51.40;;;;;;10122991;28;1911;-79
2023/02/17 18:36:45;;;;;;;;;;;18.10;51.40;;;;;;10122328;28;780;-79
2023/02/17 18:41:41;;;;;;;;;;;18.10;51.30;;;;;;10122398;28;1244;-79
2023/02/17 18:46:38;;;;;;;;;;;18.00;51.30;;;;;;10120854;28;867;-79
2023/02/17 18:51:34;;;;;;;;;;;18.00;51.30;;;;;;10121810;28;1969;-78
2023/02/17 18:56:29;;;;;;;;;;;18.10;51.30;;;;;;10121783;28;766;-79
2023/02/17 19:01:24;;;;;;;;;;;18.10;51.30;;;;;;10121574;28;773;-78
2023/02/17 19:06:20;;;;;;;;;;;18.00;51.20;;;;;;10122040;28;834;-78
2023/02/17 19:11:15;;;;;;;;;;;18.00;51.70;;;;;;10121883;28;1906;-78
2023/02/17 19:16:10;;;;;;;;;;;18.00;51.20;;;;;;10121669;28;898;-78
2023/02/17 19:21:06;;;;;;;;;;;18.00;51.20;;;;;;10120987;28;869;-82
2023/02/17 19:26:01;;;;;;;;;;;18.00;51.20;;;;;;10120817;28;862;-76
2023/02/17 19:30:57;;;;;;;;;;;18.10;51.20;;;;;;10121138;28;1961;-76
2023/02/17 19:35:52;;;;;;;;;;;18.20;51.20;;;;;;10119957;28;869;-76
2023/02/17 19:40:47;;;;;;;;;;;18.20;51.10;;;;;;10120426;28;1317;-74
2023/02/17 19:45:43;;;;;;;;;;;18.20;51.20;;;;;;10120259;28;1168;-78
2023/02/17 19:50:38;;;;;;;;;;;18.30;51.20;;;;;;10120043;28;1919;-79
2023/02/17 19:55:33;;;;;;;;;;;18.30;51.20;;;;;;10119931;28;871;-78
2023/02/17 20:00:29;;;;;;;;;;;18.40;51.20;;;;;;10119305;28;897;-78
2023/02/17 20:05:24;;;;;;;;;;;18.40;51.20;;;;;;10120275;28;948;-78
2023/02/17 20:10:20;;;;;;;;;;;18.40;51.10;;;;;;10119445;28;1906;-78
2023/02/17 20:15:15;;;;;;;;;;;18.40;51.10;;;;;;10119267;28;965;-78
2023/02/17 20:20:11;;;;;;;;;;;18.40;51.00;;;;;;10119190;28;948;-78
2023/02/17 20:25:06;;;;;;;;;;;18.40;51.00;;;;;;10119699;28;948;-78
2023/02/17 20:30:01;;;;;;;;;;;18.40;51.00;;;;;;10119873;28;1967;-78
2023/02/17 20:34:57;;;;;;;;;;;18.40;51.00;;;;;;10119268;28;869;-78
2023/02/17 20:39:52;;;;;;;;;;;18.40;51.00;;;;;;10118810;28;767;-78
2023/02/17 20:44:49;;;;;;;;;;;18.40;50.90;;;;;;10119535;28;1170;-78
2023/02/17 20:49:44;;;;;;;;;;;18.40;51.00;;;;;;10118393;28;1980;-78
2023/02/17 20:54:39;;;;;;;;;;;18.40;50.90;;;;;;10118416;28;770;-78
2023/02/17 20:59:35;;;;;;;;;;;18.40;50.90;;;;;;10118275;28;834;-78
2023/02/17 21:04:30;;;;;;;;;;;18.40;50.80;;;;;;10118142;28;841;-78
2023/02/17 21:09:26;;;;;;;;;;;18.40;50.90;;;;;;10134434;28;1895;-78
2023/02/17 21:14:21;;;;;;;;;;;18.40;51.00;;;;;;10124231;28;993;-78
2023/02/17 21:19:18;;;;;;;;;;;18.40;51.00;;;;;;10124224;28;1032;-78
2023/02/17 21:24:13;;;;;;;;;;;18.40;51.00;;;;;;10125183;28;857;-78
2023/02/17 21:29:09;;;;;;;;;;;18.40;51.00;;;;;;10123852;28;854;-78
2023/02/17 21:34:04;;;;;;;;;;;18.40;51.00;;;;;;10124822;28;1899;-78
2023/02/17 21:38:59;;;;;;;;;;;18.40;51.10;;;;;;10124175;28;849;-78
2023/02/17 21:49:09;;;;;;;;;;;18.40;51.10;;;;;;10123299;28;597;-78
2023/02/17 21:54:04;;;;;;;;;;;18.30;51.00;;;;;;10124199;28;1914;-78
2023/02/17 21:59:00;;;;;;;;;;;18.30;51.10;;;;;;10124075;28;763;-78
2023/02/17 22:03:56;;;;;;;;;;;18.30;51.00;;;;;;10123948;28;827;-75
2023/02/17 22:08:51;;;;;;;;;;;18.30;51.10;;;;;;10123207;28;835;-76
2023/02/17 22:13:47;;;;;;;;;;;18.30;51.20;;;;;;10123006;28;1969;-76
2023/02/17 22:18:42;;;;;;;;;;;18.30;51.10;;;;;;10122971;28;778;-75
2023/02/17 22:23:37;;;;;;;;;;;18.30;51.00;;;;;;10123138;28;825;-75
2023/02/17 22:28:33;;;;;;;;;;;18.30;51.00;;;;;;10123253;28;888;-75
2023/02/17 22:33:28;;;;;;;;;;;18.30;51.00;;;;;;10122390;28;1907;-76
2023/02/17 22:38:23;;;;;;;;;;;18.30;51.10;;;;;;10123697;28;1015;-75
2023/02/17 22:43:19;;;;;;;;;;;18.30;51.00;;;;;;10122724;28;1369;-75
2023/02/17 22:48:14;;;;;;;;;;;18.30;51.00;;;;;;10122047;28;806;-76
2023/02/17 22:53:10;;;;;;;;;;;18.30;51.00;;;;;;10121897;28;1985;-76
2023/02/17 22:58:05;;;;;;;;;;;18.30;51.00;;;;;;10121760;28;810;-76
2023/02/17 23:03:00;;;;;;;;;;;18.30;51.10;;;;;;10122128;28;802;-75
2023/02/17 23:07:56;;;;;;;;;;;18.30;51.10;;;;;;10121432;28;834;-75
2023/02/17 23:12:51;;;;;;;;;;;18.30;51.10;;;;;;10121182;28;1906;-75
2023/02/17 23:17:55;;;;;;;;;;;18.30;51.10;;;;;;10121322;28;838;-75
2023/02/17 23:22:51;;;;;;;;;;;18.20;51.00;;;;;;10121685;28;911;-75
2023/02/17 23:27:46;;;;;;;;;;;18.30;51.10;;;;;;10120213;28;999;-76
2023/02/17 23:32:41;;;;;;;;;;;18.30;51.10;;;;;;10119242;28;1976;-76
2023/02/17 23:37:37;;;;;;;;;;;18.30;51.00;;;;;;10121117;28;857;-75
2023/02/17 23:42:32;;;;;;;;;;;18.30;51.00;;;;;;10120893;28;1145;-75
2023/02/17 23:47:27;;;;;;;;;;;18.20;51.00;;;;;;10120801;28;777;-76
2023/02/17 23:52:23;;;;;;;;;;;18.20;51.00;;;;;;10120032;28;1979;-75
2023/02/17 23:57:18;;;;;;;;;;;18.30;51.00;;;;;;10121137;28;857;-75
